Time;durP1;ratioP1;P1;durP2;ratioP2;P2;SDS_P1;SDS_P2;PMS_P1;PMS_P2;Temp;Humidity;BMP_temperature;BMP_pressure;BME280_temperature;BME280_humidity;BME280_pressure;Samples;Min_cycle;Max_cycle;Signal;HPM_P1;HPM_P2
2023/09/07 00:00:24;;;;;;;31.30;28.90;;;23.70;99.90;;;;;;4883639;29;20486;-84
2023/09/07 00:02:50;;;;;;;30.77;28.35;;;23.70;99.90;;;;;;4886416;29;20490;-84
2023/09/07 00:05:17;;;;;;;30.67;28.38;;;23.70;99.90;;;;;;4886276;29;20032;-85
2023/09/07 00:07:43;;;;;;;31.73;29.00;;;23.70;99.90;;;;;;4901905;29;20492;-84
2023/09/07 00:10:10;;;;;;;30.40;28.10;;;23.70;99.90;;;;;;4872358;29;20075;-84
2023/09/07 00:12:39;;;;;;;31.17;28.73;;;23.70;99.90;;;;;;4867681;29;20029;-84
2023/09/07 00:15:07;;;;;;;30.50;28.27;;;23.70;99.90;;;;;;4883170;29;20029;-85
2023/09/07 00:17:33;;;;;;;31.17;28.77;;;23.70;99.90;;;;;;4887640;29;20140;-84
2023/09/07 00:20:00;;;;;;;30.92;28.42;;;23.70;99.90;;;;;;4882994;29;20025;-84
2023/09/07 00:22:26;;;;;;;30.42;28.02;;;23.70;99.90;;;;;;4882962;29;20642;-84
2023/09/07 00:24:52;;;;;;;29.55;27.15;;;23.70;99.90;;;;;;4883001;29;20063;-85
2023/09/07 00:27:19;;;;;;;30.17;27.55;;;23.70;99.90;;;;;;4898265;29;20028;-84
2023/09/07 00:29:45;;;;;;;30.05;27.75;;;23.70;99.90;;;;;;4893396;29;20502;-84
2023/09/07 00:32:11;;;;;;;30.40;27.95;;;23.60;99.90;;;;;;4901504;29;20028;-84
2023/09/07 00:34:38;;;;;;;30.00;27.65;;;23.60;99.90;;;;;;4901530;29;20028;-84
2023/09/07 00:37:04;;;;;;;29.60;27.40;;;23.60;99.90;;;;;;4901065;29;20043;-84
2023/09/07 00:39:30;;;;;;;29.15;26.80;;;23.60;99.90;;;;;;4892915;29;20119;-85
2023/09/07 00:41:57;;;;;;;30.02;27.38;;;23.60;99.90;;;;;;4882627;29;20028;-84
2023/09/07 00:44:23;;;;;;;28.95;26.65;;;23.60;99.90;;;;;;4898286;29;20055;-85
2023/09/07 00:46:50;;;;;;;29.20;26.88;;;23.60;99.90;;;;;;4898468;29;20031;-84
2023/09/07 00:49:19;;;;;;;29.67;27.20;;;23.50;99.90;;;;;;4903976;29;20039;-84
2023/09/07 00:51:46;;;;;;;29.60;27.00;;;23.50;99.90;;;;;;4901171;29;20192;-84
2023/09/07 00:54:12;;;;;;;30.05;27.13;;;23.50;99.90;;;;;;4916775;29;20091;-85
2023/09/07 00:56:39;;;;;;;28.63;26.30;;;23.50;99.90;;;;;;4916665;29;20043;-84
2023/09/07 00:59:07;;;;;;;28.52;26.30;;;23.50;99.90;;;;;;4895451;29;20104;-84
2023/09/07 01:01:35;;;;;;;28.75;26.17;;;23.50;99.90;;;;;;4898057;29;20088;-84
2023/09/07 01:04:03;;;;;;;28.60;26.00;;;23.40;99.90;;;;;;4882333;29;20047;-83
2023/09/07 01:06:35;;;;;;;28.55;26.20;;;23.40;99.90;;;;;;4882290;29;20036;-83
2023/09/07 01:09:10;;;;;;;29.35;26.75;;;23.40;99.90;;;;;;4897823;29;20445;-84
2023/09/07 01:11:37;;;;;;;29.48;26.98;;;23.40;99.90;;;;;;4882145;29;20128;-85
2023/09/07 01:14:04;;;;;;;28.65;26.13;;;23.40;99.90;;;;;;4882117;29;20025;-84
2023/09/07 01:16:33;;;;;;;28.65;26.35;;;23.50;99.90;;;;;;4897652;29;20041;-85
2023/09/07 01:19:02;;;;;;;28.98;26.50;;;23.50;99.90;;;;;;4901615;29;20454;-84
2023/09/07 01:21:38;;;;;;;28.38;25.85;;;23.50;99.90;;;;;;4900777;29;20035;-86
2023/09/07 01:24:09;;;;;;;28.38;25.95;;;23.50;99.90;;;;;;4900470;29;20039;-84
2023/09/07 01:26:39;;;;;;;28.38;26.17;;;23.50;99.90;;;;;;4917304;29;20520;-84
2023/09/07 01:29:08;;;;;;;28.50;26.30;;;23.50;99.90;;;;;;4917206;29;20482;-84
2023/09/07 01:31:40;;;;;;;28.55;26.25;;;23.50;99.90;;;;;;4915739;29;20056;-84
2023/09/07 01:34:07;;;;;;;28.55;26.25;;;23.40;99.90;;;;;;4897739;29;20043;-84
2023/09/07 01:36:33;;;;;;;29.83;27.17;;;23.40;99.90;;;;;;4900149;29;20028;-84
2023/09/07 01:39:03;;;;;;;28.90;26.40;;;23.40;99.90;;;;;;4896542;29;20040;-84
2023/09/07 01:41:30;;;;;;;29.67;27.08;;;23.50;99.90;;;;;;4881547;29;20029;-84
2023/09/07 01:43:56;;;;;;;28.90;26.48;;;23.50;99.90;;;;;;4897019;29;20025;-84
2023/09/07 01:46:23;;;;;;;28.55;26.05;;;23.50;99.90;;;;;;4881536;29;20035;-84
2023/09/07 01:48:51;;;;;;;29.83;27.20;;;23.50;99.90;;;;;;4881363;29;20029;-84
2023/09/07 01:51:17;;;;;;;29.55;27.25;;;23.50;99.90;;;;;;4881431;29;20036;-84
2023/09/07 01:53:43;;;;;;;29.85;27.35;;;23.50;99.90;;;;;;4881444;29;20031;-84
2023/09/07 01:56:10;;;;;;;29.25;26.65;;;23.60;99.90;;;;;;4881421;29;20028;-83
2023/09/07 01:58:37;;;;;;;29.60;27.10;;;23.60;99.90;;;;;;4881683;29;20486;-84
2023/09/07 02:01:03;;;;;;;29.25;26.95;;;23.70;99.90;;;;;;4899942;29;20043;-84
2023/09/07 02:03:29;;;;;;;29.05;26.55;;;23.60;99.90;;;;;;4915724;29;20024;-84
2023/09/07 02:05:56;;;;;;;28.20;26.10;;;23.60;99.90;;;;;;4915701;29;20032;-84
2023/09/07 02:08:23;;;;;;;28.00;26.00;;;23.60;99.90;;;;;;4915813;29;20462;-84
2023/09/07 02:10:49;;;;;;;29.00;26.52;;;23.60;99.90;;;;;;4901719;29;20033;-83
2023/09/07 02:13:19;;;;;;;28.60;25.98;;;23.50;99.90;;;;;;4900643;29;20036;-84
2023/09/07 02:15:45;;;;;;;28.60;26.35;;;23.50;99.90;;;;;;4900723;29;20032;-84
2023/09/07 02:18:11;;;;;;;29.00;26.52;;;23.40;99.90;;;;;;4884846;29;20557;-84
2023/09/07 02:20:38;;;;;;;29.05;26.73;;;23.40;99.90;;;;;;4900525;29;20125;-84
2023/09/07 02:23:04;;;;;;;27.95;25.80;;;23.30;99.90;;;;;;4919319;29;20092;-84
2023/09/07 02:25:31;;;;;;;28.40;26.10;;;23.30;99.90;;;;;;4919395;29;20092;-84
2023/09/07 02:27:58;;;;;;;28.27;25.90;;;23.30;99.90;;;;;;4920436;29;20029;-84
2023/09/07 02:30:24;;;;;;;27.95;25.67;;;23.30;99.90;;;;;;4903678;29;20512;-83
2023/09/07 02:32:50;;;;;;;27.85;25.67;;;23.30;99.90;;;;;;4903542;29;20055;-84
2023/09/07 02:35:16;;;;;;;28.35;25.65;;;23.40;99.90;;;;;;4919284;29;20034;-84
2023/09/07 02:37:43;;;;;;;28.02;25.63;;;23.30;99.90;;;;;;4919205;29;20082;-84
2023/09/07 02:40:09;;;;;;;26.98;24.40;;;23.30;99.90;;;;;;4906975;29;20510;-84
2023/09/07 02:42:36;;;;;;;26.45;24.35;;;23.30;99.90;;;;;;4900280;29;20376;-84
2023/09/07 02:45:04;;;;;;;26.98;24.48;;;23.20;99.90;;;;;;4884730;29;20029;-83
2023/09/07 02:47:30;;;;;;;25.80;23.52;;;23.20;99.90;;;;;;4900244;29;20529;-84
2023/09/07 02:49:57;;;;;;;25.45;23.35;;;23.20;99.90;;;;;;4911363;29;20028;-84
2023/09/07 02:52:23;;;;;;;25.50;23.30;;;23.20;99.90;;;;;;4918733;29;20032;-84
2023/09/07 02:54:50;;;;;;;25.23;23.27;;;23.10;99.90;;;;;;4914757;29;20035;-84
2023/09/07 02:57:17;;;;;;;25.25;23.40;;;23.10;99.90;;;;;;4901208;29;20402;-83
2023/09/07 02:59:44;;;;;;;25.77;23.40;;;23.10;99.90;;;;;;4907881;29;20032;-84
2023/09/07 03:02:10;;;;;;;24.63;22.63;;;23.10;99.90;;;;;;4903231;29;20028;-85
2023/09/07 03:04:37;;;;;;;24.75;22.60;;;23.00;99.90;;;;;;4919794;29;20035;-84
2023/09/07 03:07:04;;;;;;;24.33;22.40;;;23.00;99.90;;;;;;4902988;29;20107;-85
2023/09/07 03:09:30;;;;;;;24.17;22.20;;;23.00;99.90;;;;;;4896574;29;20029;-85
2023/09/07 03:11:56;;;;;;;23.92;22.13;;;23.00;99.90;;;;;;4884201;29;20032;-85
2023/09/07 03:14:24;;;;;;;25.00;22.52;;;23.10;99.90;;;;;;4884773;29;20033;-84
2023/09/07 03:16:54;;;;;;;24.13;21.95;;;23.00;99.90;;;;;;4884397;29;20083;-85
2023/09/07 03:19:20;;;;;;;23.50;21.27;;;23.10;99.90;;;;;;4868921;29;20490;-85
2023/09/07 03:21:47;;;;;;;23.25;21.02;;;23.10;99.90;;;;;;4883570;29;20084;-85
2023/09/07 03:24:15;;;;;;;23.42;21.23;;;23.00;99.90;;;;;;4868607;29;20040;-85
2023/09/07 03:26:43;;;;;;;23.27;21.35;;;23.00;99.90;;;;;;4884284;29;20032;-84
2023/09/07 03:29:10;;;;;;;23.95;21.85;;;23.00;99.90;;;;;;4871580;29;20478;-85
2023/09/07 03:31:36;;;;;;;24.33;22.20;;;23.00;99.90;;;;;;4902771;29;20068;-85
2023/09/07 03:34:03;;;;;;;24.63;22.73;;;23.00;99.90;;;;;;4902317;29;20028;-85
2023/09/07 03:36:29;;;;;;;25.30;23.30;;;23.00;99.90;;;;;;4886698;29;20507;-85
2023/09/07 03:38:55;;;;;;;26.63;24.42;;;23.10;99.90;;;;;;4900993;29;20047;-85
2023/09/07 03:41:21;;;;;;;28.92;26.52;;;23.10;99.90;;;;;;4870674;29;20074;-85
2023/09/07 03:43:48;;;;;;;30.13;27.63;;;23.20;99.90;;;;;;4883634;29;20431;-84
2023/09/07 03:46:14;;;;;;;30.65;28.23;;;23.20;99.90;;;;;;4868252;29;20029;-85
2023/09/07 03:48:41;;;;;;;31.60;28.90;;;23.30;99.90;;;;;;4868211;29;20490;-84
2023/09/07 03:51:08;;;;;;;32.95;30.05;;;23.30;99.90;;;;;;4886094;29;20039;-84
2023/09/07 03:53:34;;;;;;;32.10;29.70;;;23.40;99.90;;;;;;4901860;29;20081;-84
2023/09/07 03:56:06;;;;;;;32.45;29.55;;;23.30;99.90;;;;;;4886309;29;20106;-83
2023/09/07 03:58:32;;;;;;;32.90;30.23;;;23.30;99.90;;;;;;4901856;29;20192;-83
2023/09/07 04:01:02;;;;;;;33.10;30.48;;;23.30;99.90;;;;;;4869297;29;20024;-84
2023/09/07 04:03:30;;;;;;;33.00;30.20;;;23.30;99.90;;;;;;4883134;29;20043;-83
2023/09/07 04:05:56;;;;;;;32.88;30.02;;;23.30;99.90;;;;;;4867493;29;20495;-84
2023/09/07 04:08:23;;;;;;;32.45;29.67;;;23.30;99.90;;;;;;4882914;29;20040;-84
2023/09/07 04:10:49;;;;;;;32.20;29.60;;;23.30;99.90;;;;;;4883035;29;20024;-84
2023/09/07 04:13:15;;;;;;;31.80;29.27;;;23.30;99.90;;;;;;4918720;29;20028;-84
2023/09/07 04:15:44;;;;;;;32.28;29.55;;;23.30;99.90;;;;;;4918388;29;20036;-84
2023/09/07 04:18:15;;;;;;;31.08;28.60;;;23.30;99.90;;;;;;4910654;29;20090;-83
2023/09/07 04:20:42;;;;;;;31.75;28.73;;;23.30;99.90;;;;;;4902536;29;20446;-83
2023/09/07 04:23:09;;;;;;;30.27;27.77;;;23.30;99.90;;;;;;4882770;29;20029;-84
2023/09/07 04:25:35;;;;;;;29.85;27.42;;;23.30;99.90;;;;;;4898175;29;20028;-84
2023/09/07 04:28:02;;;;;;;30.27;27.70;;;23.30;99.90;;;;;;4898095;29;20396;-84
2023/09/07 04:30:29;;;;;;;29.42;26.92;;;23.30;99.90;;;;;;4895361;29;20078;-84
2023/09/07 04:32:55;;;;;;;29.35;26.90;;;23.30;99.90;;;;;;4901285;29;20032;-84
2023/09/07 04:35:26;;;;;;;29.17;26.88;;;23.40;99.90;;;;;;4901456;29;20040;-83
2023/09/07 04:37:53;;;;;;;29.15;26.83;;;23.40;99.90;;;;;;4901198;29;20040;-83
2023/09/07 04:40:19;;;;;;;29.17;26.88;;;23.30;99.90;;;;;;4890058;29;20135;-84
2023/09/07 04:42:46;;;;;;;28.98;26.67;;;23.40;99.90;;;;;;4897907;29;20033;-84
2023/09/07 04:45:12;;;;;;;27.92;25.48;;;23.30;99.90;;;;;;4882445;29;20512;-84
2023/09/07 05:53:31;;;;;;;29.08;26.75;;;25.60;99.90;;;;;;4859252;29;20057;-84
2023/09/07 05:55:57;;;;;;;26.20;24.25;;;27.20;99.90;;;;;;4844587;29;20029;-91
2023/09/07 05:58:23;;;;;;;25.58;23.90;;;28.60;99.90;;;;;;4829331;29;20491;-84
2023/09/07 06:00:50;;;;;;;26.33;24.30;;;29.00;99.90;;;;;;4844732;29;20029;-86
2023/09/07 06:03:16;;;;;;;26.52;24.83;;;29.60;99.90;;;;;;4826774;29;20443;-89
2023/09/07 06:05:44;;;;;;;27.27;25.52;;;29.60;99.90;;;;;;4827036;29;20033;-88
2023/09/07 06:08:11;;;;;;;27.52;25.80;;;29.90;99.90;;;;;;4826732;29;20088;-87
2023/09/07 06:10:38;;;;;;;27.00;25.20;;;29.00;99.90;;;;;;4827256;29;20038;-88
2023/09/07 06:13:06;;;;;;;27.33;25.63;;;28.50;99.90;;;;;;4811978;29;20033;-88
2023/09/07 06:15:32;;;;;;;27.08;25.38;;;27.60;99.90;;;;;;4826926;29;20505;-88
2023/09/07 06:17:59;;;;;;;27.45;25.75;;;27.40;99.90;;;;;;4827259;29;20113;-87
2023/09/07 06:20:25;;;;;;;27.77;25.98;;;27.70;99.90;;;;;;4826825;29;20051;-87
2023/09/07 06:22:52;;;;;;;27.80;25.63;;;27.50;99.90;;;;;;4826775;29;20041;-87
2023/09/07 06:25:18;;;;;;;27.45;25.65;;;26.90;99.90;;;;;;4826865;29;20120;-87
2023/09/07 06:27:45;;;;;;;28.90;27.00;;;27.80;99.90;;;;;;4826710;29;20038;-88
2023/09/07 06:30:12;;;;;;;29.58;27.77;;;28.60;99.90;;;;;;4826709;29;20037;-87
2023/09/07 06:32:41;;;;;;;29.67;27.77;;;29.80;99.90;;;;;;4834797;29;20026;-88
2023/09/07 06:35:10;;;;;;;29.65;27.85;;;30.50;99.90;;;;;;4841758;29;20086;-88
2023/09/07 06:37:40;;;;;;;29.40;27.50;;;31.10;99.90;;;;;;4826617;29;20514;-87
2023/09/07 06:40:09;;;;;;;29.45;27.55;;;30.30;99.90;;;;;;4826799;29;20112;-87
2023/09/07 06:42:35;;;;;;;32.67;30.50;;;29.70;99.90;;;;;;4826681;29;20034;-87
2023/09/07 06:45:07;;;;;;;31.08;29.17;;;30.20;99.90;;;;;;4841559;29;20065;-88
2023/09/07 06:47:34;;;;;;;30.90;29.00;;;30.90;99.90;;;;;;4841548;29;20241;-87
2023/09/07 06:50:02;;;;;;;30.58;28.48;;;31.60;99.90;;;;;;4826577;29;20042;-87
2023/09/07 06:52:29;;;;;;;31.35;29.05;;;31.10;99.90;;;;;;4826238;29;20132;-87
2023/09/07 06:54:55;;;;;;;30.88;28.95;;;30.80;99.90;;;;;;4826384;29;20069;-88
2023/09/07 06:57:22;;;;;;;31.08;28.77;;;31.10;99.90;;;;;;4828713;29;20053;-88
2023/09/07 06:59:48;;;;;;;30.45;28.40;;;31.20;99.90;;;;;;4829753;29;20392;-87
2023/09/07 07:02:15;;;;;;;31.00;28.77;;;31.10;99.90;;;;;;4829499;29;20045;-87
2023/09/07 07:04:41;;;;;;;30.10;27.90;;;31.10;99.90;;;;;;4829415;29;20026;-86
2023/09/07 08:47:45;;;;;;;29.25;27.15;;;29.60;99.90;;;;;;5498175;23;20497;-90
2023/09/07 08:50:13;;;;;;;28.08;26.13;;;29.10;99.90;;;;;;4883499;29;20033;-89
2023/09/07 08:52:40;;;;;;;28.63;26.55;;;29.00;99.90;;;;;;4882991;29;20029;-86
2023/09/07 08:55:07;;;;;;;28.85;26.95;;;28.70;99.90;;;;;;4882965;29;20033;-85
2023/09/07 08:57:34;;;;;;;29.65;27.55;;;29.00;99.90;;;;;;4867327;29;20120;-87
2023/09/07 12:48:37;;;;;;;33.92;31.77;;;30.80;99.90;;;;;;4838097;29;20054;-89
2023/09/07 12:51:03;;;;;;;35.17;32.97;;;30.60;99.90;;;;;;4825557;29;20395;-88
2023/09/07 12:53:30;;;;;;;34.00;31.80;;;30.90;99.90;;;;;;4824425;29;20030;-89
2023/09/07 12:55:57;;;;;;;34.80;32.30;;;31.10;99.90;;;;;;4811340;29;20518;-89
2023/09/07 12:58:24;;;;;;;34.10;32.00;;;31.00;99.90;;;;;;4840980;29;20046;-89
2023/09/07 13:00:51;;;;;;;34.40;31.85;;;30.90;99.90;;;;;;4841678;29;20027;-89
2023/09/07 13:03:20;;;;;;;34.75;32.45;;;30.60;99.90;;;;;;4856497;29;20034;-90
2023/09/07 13:05:47;;;;;;;34.30;32.20;;;30.50;99.90;;;;;;4841401;29;20026;-90
2023/09/07 13:08:14;;;;;;;34.15;32.13;;;30.20;99.90;;;;;;4841266;29;20043;-90
2023/09/07 13:10:42;;;;;;;34.83;32.72;;;30.20;99.90;;;;;;4856548;29;20030;-91
2023/09/07 13:13:08;;;;;;;34.22;32.03;;;30.00;99.90;;;;;;4856663;29;20492;-90
2023/09/07 13:15:35;;;;;;;35.00;32.58;;;30.10;99.90;;;;;;4841125;29;20511;-90
2023/09/07 13:18:05;;;;;;;34.33;32.13;;;30.20;99.90;;;;;;4855538;29;20162;-91
2023/09/07 13:20:35;;;;;;;35.05;32.70;;;30.10;99.90;;;;;;4840053;29;20113;-91
2023/09/07 13:23:01;;;;;;;34.17;32.08;;;29.90;99.90;;;;;;4856760;29;20738;-88
2023/09/07 13:25:27;;;;;;;33.80;31.77;;;29.80;99.90;;;;;;4839583;29;20030;-87
2023/09/07 13:27:54;;;;;;;34.38;32.08;;;29.90;99.90;;;;;;4861769;29;20569;-90
2023/09/07 13:30:20;;;;;;;33.25;31.17;;;29.60;99.90;;;;;;4846080;29;20033;-89
2023/09/07 13:32:47;;;;;;;33.15;31.05;;;29.80;99.90;;;;;;4857017;29;20409;-89
2023/09/07 13:35:14;;;;;;;33.63;31.42;;;29.80;99.90;;;;;;4842784;29;20027;-88
2023/09/07 13:37:40;;;;;;;32.95;30.85;;;29.70;99.90;;;;;;4855669;29;20412;-86
2023/09/07 13:40:08;;;;;;;33.08;30.98;;;30.00;99.90;;;;;;4824662;29;20080;-89
2023/09/07 13:42:35;;;;;;;33.20;31.17;;;29.90;99.90;;;;;;4854905;29;20034;-87
2023/09/07 13:45:01;;;;;;;33.88;31.75;;;29.90;99.90;;;;;;4854773;29;20030;-88
2023/09/07 13:47:27;;;;;;;34.38;31.88;;;29.90;99.90;;;;;;4857456;29;20103;-87
2023/09/07 13:49:54;;;;;;;36.30;33.58;;;30.00;99.90;;;;;;4842529;29;20080;-88
2023/09/07 13:52:20;;;;;;;34.45;32.10;;;30.20;99.90;;;;;;4842372;29;20041;-88
2023/09/07 13:54:47;;;;;;;33.33;31.08;;;29.90;99.90;;;;;;4842273;29;20098;-88
2023/09/07 13:57:13;;;;;;;34.10;32.00;;;29.70;99.90;;;;;;4850975;29;20057;-88
2023/09/07 13:59:39;;;;;;;34.75;32.45;;;29.80;99.90;;;;;;4830114;29;20034;-87
2023/09/07 14:02:06;;;;;;;34.30;32.10;;;30.00;99.90;;;;;;4830181;29;20033;-88
2023/09/07 14:04:32;;;;;;;34.47;32.28;;;30.10;99.90;;;;;;4860552;29;20108;-86
2023/09/07 14:06:59;;;;;;;33.28;31.27;;;29.80;99.90;;;;;;4833384;29;20033;-87
2023/09/07 14:09:25;;;;;;;33.70;31.60;;;29.60;99.90;;;;;;4864030;29;20026;-87
2023/09/07 14:11:51;;;;;;;34.42;32.33;;;29.60;99.90;;;;;;4860513;29;20037;-87
2023/09/07 14:14:20;;;;;;;33.53;31.48;;;29.60;99.90;;;;;;4864644;29;20032;-89
2023/09/07 14:16:50;;;;;;;34.13;31.95;;;29.70;99.90;;;;;;4833739;29;20038;-87
2023/09/07 14:19:16;;;;;;;34.53;32.33;;;29.90;99.90;;;;;;4864054;29;20045;-87
2023/09/07 14:21:42;;;;;;;33.72;31.45;;;29.70;99.90;;;;;;4833223;29;20029;-86
2023/09/07 14:24:09;;;;;;;33.95;31.85;;;29.80;99.90;;;;;;4833128;29;20033;-87
2023/09/07 14:26:35;;;;;;;34.60;32.25;;;29.80;99.90;;;;;;4833227;29;20445;-87
2023/09/07 14:29:01;;;;;;;33.78;31.73;;;29.60;99.90;;;;;;4833107;29;20029;-87
2023/09/07 14:31:28;;;;;;;33.50;31.20;;;29.40;99.90;;;;;;4833204;29;20094;-87
2023/09/07 14:33:54;;;;;;;34.80;32.70;;;29.30;99.90;;;;;;4819636;29;20410;-87
2023/09/07 14:36:38;;;;;;;34.47;32.38;;;29.60;99.90;;;;;;4829168;29;20476;-89
2023/09/07 14:40:18;;;;;;;35.65;33.05;;;29.50;99.90;;;;;;4831998;29;20188;-91
2023/09/07 14:43:14;;;;;;;35.70;33.13;;;29.40;99.90;;;;;;4841954;29;20510;-90
2023/09/07 14:45:44;;;;;;;35.35;33.03;;;29.40;99.90;;;;;;4824029;29;20039;-90
2023/09/07 14:48:11;;;;;;;34.83;32.72;;;29.30;99.90;;;;;;4854733;29;20114;-90
2023/09/07 14:50:38;;;;;;;35.28;32.95;;;29.40;99.90;;;;;;4823585;29;20059;-91
2023/09/07 14:53:06;;;;;;;35.45;33.03;;;29.50;99.90;;;;;;4826179;29;20034;-91
2023/09/07 14:55:44;;;;;;;35.47;33.10;;;29.40;99.90;;;;;;4847131;29;20034;-89
2023/09/07 14:58:26;;;;;;;34.80;32.60;;;29.50;99.90;;;;;;4854839;29;20053;-90
2023/09/07 15:00:55;;;;;;;34.53;32.33;;;29.50;99.90;;;;;;4847510;29;20483;-93
2023/09/07 15:03:22;;;;;;;34.55;32.20;;;29.20;99.90;;;;;;4845084;29;20415;-89
2023/09/07 15:05:57;;;;;;;35.08;32.58;;;29.00;99.90;;;;;;4844963;29;20034;-91
2023/09/07 15:08:25;;;;;;;34.63;32.15;;;29.00;99.90;;;;;;4844781;29;20030;-88
2023/09/07 15:10:51;;;;;;;35.28;32.90;;;29.20;99.90;;;;;;4845567;29;20037;-89
2023/09/07 15:13:20;;;;;;;34.50;32.40;;;29.20;99.90;;;;;;4844546;29;20030;-90
2023/09/07 15:15:46;;;;;;;34.90;32.60;;;29.10;99.90;;;;;;4844227;29;20041;-89
2023/09/07 15:18:12;;;;;;;34.70;32.65;;;29.00;99.90;;;;;;4845953;29;20042;-90
2023/09/07 15:20:38;;;;;;;34.45;32.28;;;29.10;99.90;;;;;;4846267;29;20026;-91
2023/09/07 15:23:05;;;;;;;34.67;32.58;;;29.00;99.90;;;;;;4845094;29;20030;-91
2023/09/07 15:25:31;;;;;;;34.63;32.53;;;29.20;99.90;;;;;;4846853;29;20037;-91
2023/09/07 15:27:58;;;;;;;34.38;32.10;;;29.20;99.90;;;;;;4854225;29;20033;-93
2023/09/07 15:30:30;;;;;;;34.80;32.45;;;29.20;99.90;;;;;;4837845;29;20040;-91
2023/09/07 15:33:37;;;;;;;34.13;32.03;;;29.40;99.90;;;;;;4838367;29;20093;-93
2023/09/07 15:36:35;;;;;;;35.47;33.28;;;29.10;99.90;;;;;;4846999;29;20042;-90
2023/09/07 15:39:22;;;;;;;34.35;32.25;;;29.20;99.90;;;;;;4831141;29;20512;-89
2023/09/07 15:41:52;;;;;;;34.78;32.53;;;29.10;99.90;;;;;;4829248;29;20030;-90
2023/09/07 15:44:19;;;;;;;34.25;32.03;;;29.10;99.90;;;;;;4827565;29;20096;-90
2023/09/07 15:46:47;;;;;;;34.78;32.63;;;29.00;99.90;;;;;;4842244;29;20495;-89
2023/09/07 15:49:15;;;;;;;35.42;33.05;;;28.90;99.90;;;;;;4863645;29;20057;-88
2023/09/07 15:51:41;;;;;;;35.08;32.83;;;28.80;99.90;;;;;;4863091;29;20034;-88
2023/09/07 15:54:10;;;;;;;35.15;32.95;;;28.80;99.90;;;;;;4822838;29;20030;-89
2023/09/07 15:56:40;;;;;;;34.17;31.67;;;28.90;99.90;;;;;;4845343;29;20044;-88
2023/09/07 15:59:07;;;;;;;34.72;32.63;;;28.90;99.90;;;;;;4830345;29;20133;-78
2023/09/07 16:01:39;;;;;;;35.60;33.10;;;29.00;99.90;;;;;;4846330;29;20029;-81
2023/09/07 16:04:08;;;;;;;34.87;32.73;;;29.00;99.90;;;;;;4846132;29;20046;-78
2023/09/07 16:06:35;;;;;;;34.17;32.17;;;28.90;99.90;;;;;;4847371;29;20310;-78
2023/09/07 16:09:05;;;;;;;34.67;32.38;;;28.80;99.90;;;;;;4864435;29;20059;-79
2023/09/07 16:11:32;;;;;;;34.65;32.33;;;28.80;99.90;;;;;;4864488;29;20049;-79
2023/09/07 16:14:00;;;;;;;34.20;31.83;;;28.60;99.90;;;;;;4863359;29;20040;-82
2023/09/07 16:16:32;;;;;;;34.55;32.13;;;28.50;99.90;;;;;;4873582;29;20029;-92
2023/09/07 16:19:02;;;;;;;33.90;31.90;;;28.50;99.90;;;;;;4805772;30;20062;-92
2023/09/07 16:21:37;;;;;;;33.65;31.45;;;28.50;99.90;;;;;;4787634;29;20035;-93
2023/09/07 16:24:04;;;;;;;34.30;32.22;;;28.50;99.90;;;;;;4781969;29;20098;-90
2023/09/07 16:26:32;;;;;;;34.58;32.45;;;28.50;99.90;;;;;;4789318;29;20402;-90
2023/09/07 16:28:59;;;;;;;33.72;31.67;;;28.30;99.90;;;;;;4789458;29;20031;-91
2023/09/07 16:31:39;;;;;;;33.85;31.85;;;28.30;99.90;;;;;;4789357;29;20074;-91
2023/09/07 16:34:09;;;;;;;33.78;31.67;;;28.30;99.90;;;;;;4790485;30;20508;-88
2023/09/07 16:36:41;;;;;;;33.85;31.60;;;28.30;99.90;;;;;;4788504;29;20042;-91
2023/09/07 16:39:08;;;;;;;32.53;30.30;;;28.10;99.90;;;;;;4788347;29;20669;-88
2023/09/07 16:41:35;;;;;;;31.67;29.77;;;28.00;99.90;;;;;;4788394;29;20035;-89
2023/09/07 16:44:01;;;;;;;31.52;29.63;;;28.00;99.90;;;;;;4817888;29;20132;-88
2023/09/07 16:46:28;;;;;;;31.70;29.70;;;27.90;99.90;;;;;;4843093;29;20042;-89
2023/09/07 16:48:54;;;;;;;31.98;29.95;;;27.90;99.90;;;;;;4842939;29;20061;-89
2023/09/07 16:51:21;;;;;;;31.65;29.55;;;27.90;99.90;;;;;;4844395;29;20042;-86
2023/09/07 16:53:48;;;;;;;32.00;30.00;;;27.80;99.90;;;;;;4830734;29;20034;-90
2023/09/07 16:56:17;;;;;;;32.85;30.75;;;27.70;99.90;;;;;;4824204;29;20035;-87
2023/09/07 16:58:46;;;;;;;32.53;30.42;;;27.60;99.90;;;;;;4824738;29;20053;-88
2023/09/07 17:01:12;;;;;;;32.75;30.63;;;27.60;99.90;;;;;;4830066;29;20128;-88
2023/09/07 17:03:39;;;;;;;32.67;30.48;;;27.50;99.90;;;;;;4843319;29;20113;-89
2023/09/07 17:06:05;;;;;;;32.35;30.35;;;27.40;99.90;;;;;;4843001;29;20182;-88
2023/09/07 17:08:31;;;;;;;32.35;30.25;;;27.40;99.90;;;;;;4858627;29;20078;-90
2023/09/07 17:11:00;;;;;;;31.70;29.70;;;27.40;99.90;;;;;;4831521;29;20053;-89
2023/09/07 17:13:26;;;;;;;31.70;29.63;;;27.40;99.90;;;;;;4861159;29;20414;-89
2023/09/07 17:15:53;;;;;;;31.65;29.65;;;27.30;99.90;;;;;;4830051;29;20021;-89
2023/09/07 17:18:19;;;;;;;32.08;29.88;;;27.30;99.90;;;;;;4842485;29;20052;-88
2023/09/07 17:20:45;;;;;;;31.02;29.08;;;27.20;99.90;;;;;;4842260;29;20487;-87
2023/09/07 17:23:12;;;;;;;31.00;28.90;;;27.20;99.90;;;;;;4827589;29;20053;-89
2023/09/07 17:25:39;;;;;;;31.33;29.17;;;27.20;99.90;;;;;;4827429;29;20094;-88
2023/09/07 17:28:05;;;;;;;31.38;29.25;;;27.10;99.90;;;;;;4827472;29;20038;-87
2023/09/07 17:30:36;;;;;;;31.58;29.40;;;27.10;99.90;;;;;;4827470;29;20022;-88
2023/09/07 17:33:04;;;;;;;30.70;28.60;;;27.00;99.90;;;;;;4842582;29;20057;-88
2023/09/07 17:35:30;;;;;;;30.10;27.90;;;27.00;99.90;;;;;;4827807;29;20108;-91
2023/09/07 17:38:00;;;;;;;30.23;28.05;;;26.90;99.90;;;;;;4815192;29;20396;-88
2023/09/07 17:40:26;;;;;;;29.67;27.40;;;26.90;99.90;;;;;;4841762;29;20511;-88
2023/09/07 17:42:52;;;;;;;29.23;26.90;;;26.80;99.90;;;;;;4841813;29;20480;-87
2023/09/07 17:45:19;;;;;;;28.48;26.25;;;26.80;99.90;;;;;;4830960;29;20457;-90
2023/09/07 17:47:45;;;;;;;28.92;26.88;;;26.70;99.90;;;;;;4815532;29;20073;-88
2023/09/07 17:50:13;;;;;;;30.27;27.88;;;26.60;99.90;;;;;;4841997;29;20042;-85
2023/09/07 17:52:41;;;;;;;29.30;27.08;;;26.50;99.90;;;;;;4842447;29;20026;-89
2023/09/07 17:55:08;;;;;;;30.25;28.13;;;26.40;99.90;;;;;;4842905;29;20113;-90
2023/09/07 17:57:39;;;;;;;30.80;28.48;;;26.40;99.90;;;;;;4843029;29;20396;-88
2023/09/07 18:00:07;;;;;;;31.25;28.85;;;26.30;99.90;;;;;;4845427;29;20029;-88
2023/09/07 18:02:34;;;;;;;31.60;29.08;;;26.30;99.90;;;;;;4844254;29;20050;-88
2023/09/07 18:05:01;;;;;;;30.92;28.52;;;26.20;99.90;;;;;;4845244;29;20121;-88
2023/09/07 18:07:31;;;;;;;29.63;27.00;;;26.30;99.90;;;;;;4839462;29;20034;-90
2023/09/07 18:10:12;;;;;;;29.00;26.70;;;26.30;99.90;;;;;;4844365;29;20061;-91
2023/09/07 18:12:46;;;;;;;29.40;26.92;;;26.20;99.90;;;;;;4845594;29;20037;-89
2023/09/07 18:15:13;;;;;;;;;;;26.20;99.90;;;;;;4831124;29;20085;-90
2023/09/07 18:17:40;;;;;;;31.00;28.50;;;26.10;99.90;;;;;;4847960;29;19916;-89
2023/09/07 18:20:11;;;;;;;31.42;28.73;;;26.10;99.90;;;;;;4850653;29;20045;-89
2023/09/07 18:22:40;;;;;;;31.80;29.20;;;26.00;99.90;;;;;;4817624;29;20117;-90
2023/09/07 18:25:09;;;;;;;31.08;28.80;;;25.90;99.90;;;;;;4814915;29;20037;-89
2023/09/07 18:27:36;;;;;;;31.92;29.27;;;25.90;99.90;;;;;;4820520;29;20098;-88
2023/09/07 18:30:06;;;;;;;32.75;29.77;;;25.80;99.90;;;;;;4853652;29;20032;-89
2023/09/07 18:32:34;;;;;;;33.33;30.08;;;25.80;99.90;;;;;;4822280;29;20403;-91
2023/09/07 18:35:09;;;;;;;33.90;31.02;;;25.80;99.90;;;;;;4846357;29;20046;-90
2023/09/07 18:37:40;;;;;;;36.58;32.85;;;25.80;99.90;;;;;;4844713;29;20042;-88
2023/09/07 18:40:10;;;;;;;38.67;34.70;;;25.70;99.90;;;;;;4859016;29;20037;-90
2023/09/07 18:42:37;;;;;;;37.85;34.33;;;25.70;99.90;;;;;;4851962;29;20074;-89
2023/09/07 18:45:05;;;;;;;37.42;33.88;;;25.70;99.90;;;;;;4845877;29;20026;-88
2023/09/07 18:47:36;;;;;;;37.83;34.17;;;25.60;99.90;;;;;;4846215;29;20046;-86
2023/09/07 18:50:03;;;;;;;36.65;33.22;;;25.60;99.90;;;;;;4844861;29;20029;-87
2023/09/07 18:52:30;;;;;;;37.65;33.95;;;25.60;99.90;;;;;;4830438;29;20525;-86
2023/09/07 18:54:57;;;;;;;37.25;33.60;;;25.60;99.90;;;;;;4840569;29;20041;-89
2023/09/07 18:57:23;;;;;;;40.58;34.88;;;25.60;99.90;;;;;;4851784;29;20033;-89
2023/09/07 18:59:52;;;;;;;37.63;34.03;;;25.50;99.90;;;;;;4833603;29;20200;-89
2023/09/07 19:02:19;;;;;;;37.90;34.05;;;25.50;99.90;;;;;;4836178;29;20026;-89
2023/09/07 19:04:48;;;;;;;40.05;35.85;;;25.50;99.90;;;;;;4858330;29;20038;-88
2023/09/07 19:07:24;;;;;;;40.83;35.47;;;25.50;99.90;;;;;;4847572;29;20117;-88